sensor_id;sensor_type;location;lat;lon;timestamp;pressure;altitude;pressure_sealevel;temperature;humidity
47753;BME280;2038;51.728;6.674;2023-05-09T00:01:11;101113.84;;;17.94;100.00
47753;BME280;2038;51.728;6.674;2023-05-09T00:03:39;101103.53;;;17.94;100.00
47753;BME280;2038;51.728;6.674;2023-05-09T00:06:08;101103.41;;;17.91;100.00
47753;BME280;2038;51.728;6.674;2023-05-09T00:08:36;101098.13;;;17.88;100.00
47753;BME280;2038;51.728;6.674;2023-05-09T00:11:03;101098.81;;;17.84;100.00
47753;BME280;2038;51.728;6.674;2023-05-09T00:13:29;101091.97;;;17.85;100.00
47753;BME280;2038;51.728;6.674;2023-05-09T00:15:55;101089.25;;;17.82;100.00
47753;BME280;2038;51.728;6.674;2023-05-09T00:18:24;101100.53;;;17.84;100.00
47753;BME280;2038;51.728;6.674;2023-05-09T00:20:51;101093.47;;;17.80;100.00
47753;BME280;2038;51.728;6.674;2023-05-09T00:23:17;101089.94;;;17.77;100.00
47753;BME280;2038;51.728;6.674;2023-05-09T00:25:43;101094.97;;;17.74;100.00
47753;BME280;2038;51.728;6.674;2023-05-09T00:28:09;101090.63;;;17.73;100.00
47753;BME280;2038;51.728;6.674;2023-05-09T00:30:36;101079.44;;;17.73;100.00
47753;BME280;2038;51.728;6.674;2023-05-09T00:33:02;101082.88;;;17.73;100.00
47753;BME280;2038;51.728;6.674;2023-05-09T00:35:28;101078.63;;;17.74;100.00
47753;BME280;2038;51.728;6.674;2023-05-09T00:37:56;101070.84;;;17.72;100.00
47753;BME280;2038;51.728;6.674;2023-05-09T00:40:22;101069.06;;;17.71;100.00
47753;BME280;2038;51.728;6.674;2023-05-09T00:42:48;101066.50;;;17.71;100.00
47753;BME280;2038;51.728;6.674;2023-05-09T00:45:14;101058.69;;;17.70;100.00
47753;BME280;2038;51.728;6.674;2023-05-09T00:47:41;101061.13;;;17.67;100.00
47753;BME280;2038;51.728;6.674;2023-05-09T00:50:08;101058.69;;;17.70;100.00
47753;BME280;2038;51.728;6.674;2023-05-09T00:52:35;101046.63;;;17.69;100.00
47753;BME280;2038;51.728;6.674;2023-05-09T00:55:02;101042.47;;;17.72;100.00
47753;BME280;2038;51.728;6.674;2023-05-09T00:57:30;101040.78;;;17.73;100.00
47753;BME280;2038;51.728;6.674;2023-05-09T00:59:56;101044.97;;;17.71;100.00
47753;BME280;2038;51.728;6.674;2023-05-09T01:02:22;101041.72;;;17.75;100.00
47753;BME280;2038;51.728;6.674;2023-05-09T01:04:49;101034.94;;;17.77;100.00
47753;BME280;2038;51.728;6.674;2023-05-09T01:07:34;101028.94;;;17.78;100.00
47753;BME280;2038;51.728;6.674;2023-05-09T01:13:25;101021.66;;;17.68;100.00
47753;BME280;2038;51.728;6.674;2023-05-09T01:16:09;101018.00;;;17.63;100.00
47753;BME280;2038;51.728;6.674;2023-05-09T01:22:03;101001.63;;;17.61;100.00
47753;BME280;2038;51.728;6.674;2023-05-09T01:27:49;100997.03;;;17.55;100.00
47753;BME280;2038;51.728;6.674;2023-05-09T01:30:24;100994.97;;;17.47;100.00
47753;BME280;2038;51.728;6.674;2023-05-09T01:32:55;100993.34;;;17.49;100.00
47753;BME280;2038;51.728;6.674;2023-05-09T01:35:26;100988.91;;;17.46;100.00
47753;BME280;2038;51.728;6.674;2023-05-09T01:37:56;101001.06;;;17.49;100.00
47753;BME280;2038;51.728;6.674;2023-05-09T01:40:25;100997.63;;;17.48;100.00
47753;BME280;2038;51.728;6.674;2023-05-09T01:43:05;100988.31;;;17.52;100.00
47753;BME280;2038;51.728;6.674;2023-05-09T01:45:36;100997.81;;;17.53;100.00
47753;BME280;2038;51.728;6.674;2023-05-09T01:48:05;100996.22;;;17.56;100.00
47753;BME280;2038;51.728;6.674;2023-05-09T01:50:35;100994.47;;;17.55;100.00
47753;BME280;2038;51.728;6.674;2023-05-09T01:53:03;100986.88;;;17.58;100.00
47753;BME280;2038;51.728;6.674;2023-05-09T01:55:33;100993.81;;;17.59;100.00
47753;BME280;2038;51.728;6.674;2023-05-09T01:58:03;100983.56;;;17.61;100.00
47753;BME280;2038;51.728;6.674;2023-05-09T02:00:33;100987.97;;;17.63;100.00
47753;BME280;2038;51.728;6.674;2023-05-09T02:03:01;100983.72;;;17.65;100.00
47753;BME280;2038;51.728;6.674;2023-05-09T02:05:30;100987.16;;;17.64;100.00
47753;BME280;2038;51.728;6.674;2023-05-09T02:07:57;100987.16;;;17.64;100.00
47753;BME280;2038;51.728;6.674;2023-05-09T02:10:25;100986.31;;;17.65;100.00
47753;BME280;2038;51.728;6.674;2023-05-09T02:12:54;100988.03;;;17.65;100.00
47753;BME280;2038;51.728;6.674;2023-05-09T02:15:21;100985.38;;;17.63;100.00
47753;BME280;2038;51.728;6.674;2023-05-09T02:17:47;100986.19;;;17.62;100.00
47753;BME280;2038;51.728;6.674;2023-05-09T02:20:13;100982.88;;;17.65;100.00
47753;BME280;2038;51.728;6.674;2023-05-09T02:22:40;100987.25;;;17.67;100.00
47753;BME280;2038;51.728;6.674;2023-05-09T02:25:10;100988.97;;;17.67;100.00
47753;BME280;2038;51.728;6.674;2023-05-09T02:27:40;100989.91;;;17.69;100.00
47753;BME280;2038;51.728;6.674;2023-05-09T02:30:12;100983.09;;;17.71;100.00
47753;BME280;2038;51.728;6.674;2023-05-09T02:32:44;100992.72;;;17.75;100.00
47753;BME280;2038;51.728;6.674;2023-05-09T02:35:16;100984.91;;;17.73;100.00
47753;BME280;2038;51.728;6.674;2023-05-09T02:37:44;100980.66;;;17.74;100.00
47753;BME280;2038;51.728;6.674;2023-05-09T02:40:11;100977.03;;;17.69;100.00
47753;BME280;2038;51.728;6.674;2023-05-09T02:42:38;100976.34;;;17.73;100.00
47753;BME280;2038;51.728;6.674;2023-05-09T02:45:05;100972.88;;;17.72;100.00
47753;BME280;2038;51.728;6.674;2023-05-09T02:47:32;100976.25;;;17.71;100.00
47753;BME280;2038;51.728;6.674;2023-05-09T02:49:58;100988.16;;;17.68;100.00
47753;BME280;2038;51.728;6.674;2023-05-09T02:52:25;100978.94;;;17.74;100.00
47753;BME280;2038;51.728;6.674;2023-05-09T02:54:51;100973.78;;;17.74;100.00
47753;BME280;2038;51.728;6.674;2023-05-09T02:57:17;100969.44;;;17.73;100.00
47753;BME280;2038;51.728;6.674;2023-05-09T02:59:43;100969.59;;;17.76;100.00
47753;BME280;2038;51.728;6.674;2023-05-09T03:02:10;100966.03;;;17.73;100.00
47753;BME280;2038;51.728;6.674;2023-05-09T03:04:36;100971.03;;;17.70;100.00
47753;BME280;2038;51.728;6.674;2023-05-09T03:07:02;100960.72;;;17.70;100.00
47753;BME280;2038;51.728;6.674;2023-05-09T03:09:29;100958.13;;;17.70;100.00
47753;BME280;2038;51.728;6.674;2023-05-09T03:11:55;100958.09;;;17.68;100.00
47753;BME280;2038;51.728;6.674;2023-05-09T03:14:21;100959.03;;;17.70;100.00
47753;BME280;2038;51.728;6.674;2023-05-09T03:16:48;100955.63;;;17.71;100.00
47753;BME280;2038;51.728;6.674;2023-05-09T03:19:14;100954.94;;;17.75;100.00
47753;BME280;2038;51.728;6.674;2023-05-09T03:21:40;100950.59;;;17.74;100.00
47753;BME280;2038;51.728;6.674;2023-05-09T03:24:07;100954.13;;;17.76;100.00
47753;BME280;2038;51.728;6.674;2023-05-09T03:26:35;100944.56;;;17.74;100.00
47753;BME280;2038;51.728;6.674;2023-05-09T03:29:02;100948.81;;;17.73;100.00
47753;BME280;2038;51.728;6.674;2023-05-09T03:31:29;100948.78;;;17.72;100.00
47753;BME280;2038;51.728;6.674;2023-05-09T03:33:55;100946.81;;;17.66;100.00
47753;BME280;2038;51.728;6.674;2023-05-09T03:36:21;100946.38;;;17.56;100.00
47753;BME280;2038;51.728;6.674;2023-05-09T03:38:48;100948.06;;;17.55;100.00
47753;BME280;2038;51.728;6.674;2023-05-09T03:41:16;100947.19;;;17.55;100.00
47753;BME280;2038;51.728;6.674;2023-05-09T03:43:42;100940.22;;;17.52;100.00
47753;BME280;2038;51.728;6.674;2023-05-09T03:46:09;100942.66;;;17.49;100.00
47753;BME280;2038;51.728;6.674;2023-05-09T03:48:36;100943.69;;;17.53;100.00
47753;BME280;2038;51.728;6.674;2023-05-09T03:51:02;100936.22;;;17.59;100.00
47753;BME280;2038;51.728;6.674;2023-05-09T03:53:29;100934.63;;;17.62;100.00
47753;BME280;2038;51.728;6.674;2023-05-09T03:55:55;100937.31;;;17.65;100.00
47753;BME280;2038;51.728;6.674;2023-05-09T03:58:21;100926.84;;;17.61;100.00
47753;BME280;2038;51.728;6.674;2023-05-09T04:00:47;100918.28;;;17.62;100.00
47753;BME280;2038;51.728;6.674;2023-05-09T04:03:14;100918.25;;;17.60;100.00
47753;BME280;2038;51.728;6.674;2023-05-09T04:05:40;100919.78;;;17.57;100.00
47753;BME280;2038;51.728;6.674;2023-05-09T04:08:07;100924.81;;;17.54;100.00
47753;BME280;2038;51.728;6.674;2023-05-09T04:10:33;100922.28;;;17.55;100.00
47753;BME280;2038;51.728;6.674;2023-05-09T04:12:59;100919.72;;;17.55;100.00
47753;BME280;2038;51.728;6.674;2023-05-09T04:15:26;100922.22;;;17.54;100.00
47753;BME280;2038;51.728;6.674;2023-05-09T04:17:52;100917.13;;;17.55;100.00
47753;BME280;2038;51.728;6.674;2023-05-09T04:20:18;100920.59;;;17.56;100.00
47753;BME280;2038;51.728;6.674;2023-05-09T04:22:44;100920.75;;;17.59;100.00
47753;BME280;2038;51.728;6.674;2023-05-09T04:25:10;100916.47;;;17.59;100.00
47753;BME280;2038;51.728;6.674;2023-05-09T04:27:38;100919.13;;;17.61;100.00
47753;BME280;2038;51.728;6.674;2023-05-09T04:30:05;100913.28;;;17.65;100.00
47753;BME280;2038;51.728;6.674;2023-05-09T04:32:32;100915.00;;;17.66;100.00
47753;BME280;2038;51.728;6.674;2023-05-09T04:35:00;100905.66;;;17.68;100.00
47753;BME280;2038;51.728;6.674;2023-05-09T04:37:26;100897.81;;;17.65;100.00
47753;BME280;2038;51.728;6.674;2023-05-09T04:39:52;100901.19;;;17.64;100.00
47753;BME280;2038;51.728;6.674;2023-05-09T04:42:19;100898.72;;;17.67;100.00
47753;BME280;2038;51.728;6.674;2023-05-09T04:44:45;100903.81;;;17.65;100.00
47753;BME280;2038;51.728;6.674;2023-05-09T04:47:12;100900.38;;;17.65;100.00
47753;BME280;2038;51.728;6.674;2023-05-09T04:49:38;100901.31;;;17.67;100.00
47753;BME280;2038;51.728;6.674;2023-05-09T04:52:05;100900.63;;;17.71;100.00
47753;BME280;2038;51.728;6.674;2023-05-09T04:54:32;100893.16;;;17.78;100.00
47753;BME280;2038;51.728;6.674;2023-05-09T04:56:58;100893.13;;;17.77;100.00
47753;BME280;2038;51.728;6.674;2023-05-09T04:59:24;100891.47;;;17.79;100.00
47753;BME280;2038;51.728;6.674;2023-05-09T05:01:50;100889.88;;;17.83;100.00
47753;BME280;2038;51.728;6.674;2023-05-09T05:04:17;100892.72;;;17.89;100.00
47753;BME280;2038;51.728;6.674;2023-05-09T05:06:43;100889.44;;;17.93;100.00
47753;BME280;2038;51.728;6.674;2023-05-09T05:09:09;100890.34;;;17.95;100.00
47753;BME280;2038;51.728;6.674;2023-05-09T05:11:35;100882.63;;;17.95;100.00
47753;BME280;2038;51.728;6.674;2023-05-09T05:14:02;100889.38;;;17.91;100.00
47753;BME280;2038;51.728;6.674;2023-05-09T05:16:28;100885.31;;;17.98;100.00
47753;BME280;2038;51.728;6.674;2023-05-09T05:18:54;100887.66;;;17.92;100.00
47753;BME280;2038;51.728;6.674;2023-05-09T05:21:21;100885.97;;;17.92;100.00
47753;BME280;2038;51.728;6.674;2023-05-09T05:23:47;100873.25;;;17.97;100.00
47753;BME280;2038;51.728;6.674;2023-05-09T05:26:13;100870.72;;;17.98;100.00
47753;BME280;2038;51.728;6.674;2023-05-09T05:28:39;100883.78;;;18.03;100.00
47753;BME280;2038;51.728;6.674;2023-05-09T05:31:05;100877.81;;;18.04;100.00
47753;BME280;2038;51.728;6.674;2023-05-09T05:33:31;100863.31;;;18.07;100.00
47753;BME280;2038;51.728;6.674;2023-05-09T05:35:58;100868.59;;;18.10;100.00
47753;BME280;2038;51.728;6.674;2023-05-09T05:38:24;100865.84;;;18.06;100.00
47753;BME280;2038;51.728;6.674;2023-05-09T05:40:50;100862.28;;;18.02;100.00
47753;BME280;2038;51.728;6.674;2023-05-09T05:43:16;100870.78;;;18.00;100.00
47753;BME280;2038;51.728;6.674;2023-05-09T05:45:43;100867.56;;;18.05;100.00
47753;BME280;2038;51.728;6.674;2023-05-09T05:48:09;100864.13;;;18.06;100.00
47753;BME280;2038;51.728;6.674;2023-05-09T05:50:35;100858.97;;;18.06;100.00
47753;BME280;2038;51.728;6.674;2023-05-09T05:53:02;100858.09;;;18.06;100.00
47753;BME280;2038;51.728;6.674;2023-05-09T05:55:28;100860.53;;;18.01;100.00
47753;BME280;2038;51.728;6.674;2023-05-09T05:57:54;100846.31;;;18.12;100.00
47753;BME280;2038;51.728;6.674;2023-05-09T06:00:20;100855.97;;;18.18;100.00
47753;BME280;2038;51.728;6.674;2023-05-09T06:02:47;100850.81;;;18.18;100.00
47753;BME280;2038;51.728;6.674;2023-05-09T06:05:13;100843.03;;;18.16;100.00
47753;BME280;2038;51.728;6.674;2023-05-09T06:07:40;100840.38;;;18.15;100.00
47753;BME280;2038;51.728;6.674;2023-05-09T06:10:07;100833.47;;;18.14;100.00
47753;BME280;2038;51.728;6.674;2023-05-09T06:12:33;100838.53;;;18.11;100.00
47753;BME280;2038;51.728;6.674;2023-05-09T06:15:00;100836.75;;;18.10;100.00
47753;BME280;2038;51.728;6.674;2023-05-09T06:17:26;100829.09;;;18.11;100.00
47753;BME280;2038;51.728;6.674;2023-05-09T06:19:53;100829.16;;;18.13;100.00
47753;BME280;2038;51.728;6.674;2023-05-09T06:22:19;100823.09;;;18.12;100.00
47753;BME280;2038;51.728;6.674;2023-05-09T06:24:45;100825.88;;;18.17;100.00
47753;BME280;2038;51.728;6.674;2023-05-09T06:27:11;100824.97;;;18.16;100.00
47753;BME280;2038;51.728;6.674;2023-05-09T06:29:37;100819.09;;;18.20;100.00
47753;BME280;2038;51.728;6.674;2023-05-09T06:32:04;100814.81;;;18.21;100.00
47753;BME280;2038;51.728;6.674;2023-05-09T06:34:30;100808.94;;;18.25;100.00
47753;BME280;2038;51.728;6.674;2023-05-09T06:36:56;100811.63;;;18.28;100.00
47753;BME280;2038;51.728;6.674;2023-05-09T06:39:23;100802.47;;;18.36;100.00
47753;BME280;2038;51.728;6.674;2023-05-09T06:41:49;100801.41;;;18.31;100.00
47753;BME280;2038;51.728;6.674;2023-05-09T06:44:15;100792.94;;;18.35;100.00
47753;BME280;2038;51.728;6.674;2023-05-09T06:46:41;100792.41;;;18.44;100.00
47753;BME280;2038;51.728;6.674;2023-05-09T06:49:07;100793.00;;;18.60;100.00
47753;BME280;2038;51.728;6.674;2023-05-09T06:51:34;100791.31;;;18.61;100.00
47753;BME280;2038;51.728;6.674;2023-05-09T06:54:00;100781.97;;;18.66;100.00
47753;BME280;2038;51.728;6.674;2023-05-09T06:56:27;100777.09;;;18.74;100.00
47753;BME280;2038;51.728;6.674;2023-05-09T06:58:53;100777.84;;;18.71;100.00
47753;BME280;2038;51.728;6.674;2023-05-09T07:01:19;100778.34;;;18.86;100.00
47753;BME280;2038;51.728;6.674;2023-05-09T07:03:45;100785.53;;;18.95;100.00
47753;BME280;2038;51.728;6.674;2023-05-09T07:06:12;100775.44;;;19.02;100.00
47753;BME280;2038;51.728;6.674;2023-05-09T07:08:39;100774.53;;;19.00;100.00
47753;BME280;2038;51.728;6.674;2023-05-09T07:11:05;100773.22;;;19.14;100.00
47753;BME280;2038;51.728;6.674;2023-05-09T07:13:31;100771.75;;;19.23;100.00
47753;BME280;2038;51.728;6.674;2023-05-09T07:15:57;100764.97;;;19.26;100.00
47753;BME280;2038;51.728;6.674;2023-05-09T07:18:23;100763.72;;;19.40;100.00
47753;BME280;2038;51.728;6.674;2023-05-09T07:20:50;100755.28;;;19.46;100.00
47753;BME280;2038;51.728;6.674;2023-05-09T07:23:16;100758.09;;;19.53;100.00
47753;BME280;2038;51.728;6.674;2023-05-09T07:25:42;100753.03;;;19.58;100.00
47753;BME280;2038;51.728;6.674;2023-05-09T07:28:10;100755.38;;;19.49;100.00
47753;BME280;2038;51.728;6.674;2023-05-09T07:30:37;100751.91;;;19.48;100.00
47753;BME280;2038;51.728;6.674;2023-05-09T07:33:03;100753.41;;;19.42;100.00
47753;BME280;2038;51.728;6.674;2023-05-09T07:35:30;100747.44;;;19.43;100.00
47753;BME280;2038;51.728;6.674;2023-05-09T07:37:56;100738.53;;;19.35;100.00
47753;BME280;2038;51.728;6.674;2023-05-09T07:40:22;100739.63;;;19.41;100.00
47753;BME280;2038;51.728;6.674;2023-05-09T07:42:48;100741.00;;;19.58;100.00
47753;BME280;2038;51.728;6.674;2023-05-09T07:45:16;100729.34;;;19.73;100.00
47753;BME280;2038;51.728;6.674;2023-05-09T07:47:42;100726.03;;;19.78;100.00
47753;BME280;2038;51.728;6.674;2023-05-09T07:50:09;100732.44;;;19.91;100.00
47753;BME280;2038;51.728;6.674;2023-05-09T07:52:35;100724.09;;;20.01;100.00
47753;BME280;2038;51.728;6.674;2023-05-09T07:55:01;100725.75;;;19.99;100.00
47753;BME280;2038;51.728;6.674;2023-05-09T07:57:27;100724.84;;;19.97;100.00
47753;BME280;2038;51.728;6.674;2023-05-09T07:59:54;100722.66;;;20.12;100.00
47753;BME280;2038;51.728;6.674;2023-05-09T08:02:20;100717.13;;;19.98;100.00
47753;BME280;2038;51.728;6.674;2023-05-09T08:04:46;100716.47;;;20.05;100.00
47753;BME280;2038;51.728;6.674;2023-05-09T08:07:15;100714.03;;;20.12;100.00
47753;BME280;2038;51.728;6.674;2023-05-09T08:09:42;100702.88;;;20.14;100.00
47753;BME280;2038;51.728;6.674;2023-05-09T08:12:08;100704.03;;;20.25;100.00
47753;BME280;2038;51.728;6.674;2023-05-09T08:14:34;100698.69;;;20.18;100.00
47753;BME280;2038;51.728;6.674;2023-05-09T08:17:00;100697.69;;;20.13;100.00
47753;BME280;2038;51.728;6.674;2023-05-09T08:19:26;100695.09;;;20.13;100.00
47753;BME280;2038;51.728;6.674;2023-05-09T08:21:53;100692.25;;;20.03;100.00
47753;BME280;2038;51.728;6.674;2023-05-09T08:24:19;100678.34;;;20.00;100.00
47753;BME280;2038;51.728;6.674;2023-05-09T08:26:45;100677.09;;;20.19;100.00
47753;BME280;2038;51.728;6.674;2023-05-09T08:29:12;100667.97;;;20.31;100.00
47753;BME280;2038;51.728;6.674;2023-05-09T08:31:38;100675.41;;;20.52;100.00
47753;BME280;2038;51.728;6.674;2023-05-09T08:34:04;100665.28;;;20.63;100.00
47753;BME280;2038;51.728;6.674;2023-05-09T08:36:30;100673.16;;;20.67;100.00
47753;BME280;2038;51.728;6.674;2023-05-09T08:38:57;100662.16;;;20.76;100.00
47753;BME280;2038;51.728;6.674;2023-05-09T08:41:25;100661.44;;;20.83;100.00
47753;BME280;2038;51.728;6.674;2023-05-09T08:43:55;100664.19;;;20.90;100.00
47753;BME280;2038;51.728;6.674;2023-05-09T08:46:35;100661.47;;;20.84;100.00
47753;BME280;2038;51.728;6.674;2023-05-09T08:49:05;100660.25;;;21.08;100.00
47753;BME280;2038;51.728;6.674;2023-05-09T08:51:34;100648.25;;;21.11;100.00
47753;BME280;2038;51.728;6.674;2023-05-09T08:54:01;100639.50;;;21.06;100.00
47753;BME280;2038;51.728;6.674;2023-05-09T08:56:29;100645.72;;;21.13;100.00
47753;BME280;2038;51.728;6.674;2023-05-09T08:58:56;100646.25;;;20.99;99.42
47753;BME280;2038;51.728;6.674;2023-05-09T09:01:24;100633.44;;;21.06;100.00
47753;BME280;2038;51.728;6.674;2023-05-09T09:03:53;100629.59;;;21.27;100.00
47753;BME280;2038;51.728;6.674;2023-05-09T09:06:21;100633.28;;;21.38;100.00
47753;BME280;2038;51.728;6.674;2023-05-09T09:08:48;100628.56;;;21.61;100.00
47753;BME280;2038;51.728;6.674;2023-05-09T09:11:16;100636.34;;;21.61;100.00
47753;BME280;2038;51.728;6.674;2023-05-09T09:13:43;100631.75;;;21.48;96.86
47753;BME280;2038;51.728;6.674;2023-05-09T09:16:17;100630.91;;;21.49;92.79
47753;BME280;2038;51.728;6.674;2023-05-09T09:18:46;100626.56;;;21.48;93.27
47753;BME280;2038;51.728;6.674;2023-05-09T09:21:15;100628.28;;;21.47;90.83
47753;BME280;2038;51.728;6.674;2023-05-09T09:23:43;100619.94;;;21.62;91.37
47753;BME280;2038;51.728;6.674;2023-05-09T09:26:12;100619.09;;;21.65;91.49
47753;BME280;2038;51.728;6.674;2023-05-09T09:28:39;100617.22;;;21.56;90.56
47753;BME280;2038;51.728;6.674;2023-05-09T09:31:30;100613.69;;;21.53;88.02
47753;BME280;2038;51.728;6.674;2023-05-09T09:34:01;100607.75;;;21.58;88.02
47753;BME280;2038;51.728;6.674;2023-05-09T09:36:29;100612.25;;;21.68;89.32
47753;BME280;2038;51.728;6.674;2023-05-09T09:39:02;100605.38;;;21.70;88.55
47753;BME280;2038;51.728;6.674;2023-05-09T09:41:33;100602.06;;;21.77;86.86
47753;BME280;2038;51.728;6.674;2023-05-09T09:44:07;100601.25;;;21.83;87.24
47753;BME280;2038;51.728;6.674;2023-05-09T09:46:54;100593.56;;;21.87;85.76
47753;BME280;2038;51.728;6.674;2023-05-09T09:49:23;100591.16;;;21.97;86.19
47753;BME280;2038;51.728;6.674;2023-05-09T09:51:55;100593.13;;;22.10;88.74
47753;BME280;2038;51.728;6.674;2023-05-09T09:54:26;100588.00;;;22.14;89.47
47753;BME280;2038;51.728;6.674;2023-05-09T09:56:53;100583.81;;;22.24;87.01
47753;BME280;2038;51.728;6.674;2023-05-09T09:59:21;100582.22;;;22.30;85.83
47753;BME280;2038;51.728;6.674;2023-05-09T10:04:28;100572.03;;;22.47;89.57
47753;BME280;2038;51.728;6.674;2023-05-09T10:07:00;100561.78;;;22.56;90.50
47753;BME280;2038;51.728;6.674;2023-05-09T10:09:28;100567.72;;;22.46;88.30
47753;BME280;2038;51.728;6.674;2023-05-09T10:11:56;100567.72;;;22.46;86.23
47753;BME280;2038;51.728;6.674;2023-05-09T10:14:32;100565.25;;;22.57;89.07
47753;BME280;2038;51.728;6.674;2023-05-09T10:17:01;100559.31;;;22.65;90.77
47753;BME280;2038;51.728;6.674;2023-05-09T10:19:29;100564.63;;;22.71;89.41
47753;BME280;2038;51.728;6.674;2023-05-09T10:22:00;100560.09;;;22.58;86.05
47753;BME280;2038;51.728;6.674;2023-05-09T10:24:55;100555.00;;;22.67;89.27
47753;BME280;2038;51.728;6.674;2023-05-09T10:27:34;100546.47;;;22.73;88.09
47753;BME280;2038;51.728;6.674;2023-05-09T10:35:17;100548.22;;;22.75;87.21
47753;BME280;2038;51.728;6.674;2023-05-09T10:37:45;100535.16;;;22.71;84.69
47753;BME280;2038;51.728;6.674;2023-05-09T10:40:13;100535.22;;;22.74;86.83
47753;BME280;2038;51.728;6.674;2023-05-09T10:42:43;100531.06;;;22.88;86.86
47753;BME280;2038;51.728;6.674;2023-05-09T10:45:11;100524.94;;;22.84;85.92
47753;BME280;2038;51.728;6.674;2023-05-09T10:47:38;100525.09;;;22.97;87.14
47753;BME280;2038;51.728;6.674;2023-05-09T10:50:07;100518.88;;;22.84;86.55
47753;BME280;2038;51.728;6.674;2023-05-09T10:55:55;100516.28;;;22.82;84.53
47753;BME280;2038;51.728;6.674;2023-05-09T11:00:56;100509.38;;;22.86;86.30
47753;BME280;2038;51.728;6.674;2023-05-09T11:03:25;100505.97;;;22.92;87.22
47753;BME280;2038;51.728;6.674;2023-05-09T11:05:55;100495.50;;;22.82;85.53
47753;BME280;2038;51.728;6.674;2023-05-09T11:08:24;100492.22;;;22.99;86.09
47753;BME280;2038;51.728;6.674;2023-05-09T11:10:53;100494.00;;;23.03;86.29
47753;BME280;2038;51.728;6.674;2023-05-09T11:13:24;100490.44;;;22.98;84.79
47753;BME280;2038;51.728;6.674;2023-05-09T11:18:31;100482.91;;;23.23;85.79
47753;BME280;2038;51.728;6.674;2023-05-09T11:20:58;100479.56;;;23.35;86.36
47753;BME280;2038;51.728;6.674;2023-05-09T11:23:32;100481.00;;;23.07;83.31
47753;BME280;2038;51.728;6.674;2023-05-09T11:26:05;100480.25;;;23.14;85.13
47753;BME280;2038;51.728;6.674;2023-05-09T11:28:34;100474.22;;;23.20;83.84
47753;BME280;2038;51.728;6.674;2023-05-09T11:31:18;100467.25;;;23.14;85.16
47753;BME280;2038;51.728;6.674;2023-05-09T11:33:47;100470.91;;;22.59;87.32
47753;BME280;2038;51.728;6.674;2023-05-09T11:39:04;100452.06;;;21.54;94.22
47753;BME280;2038;51.728;6.674;2023-05-09T11:41:43;100456.84;;;21.31;94.88
47753;BME280;2038;51.728;6.674;2023-05-09T11:44:19;100458.31;;;21.17;95.58
47753;BME280;2038;51.728;6.674;2023-05-09T11:46:47;100449.13;;;20.89;95.63
47753;BME280;2038;51.728;6.674;2023-05-09T11:49:14;100451.69;;;20.87;97.05
47753;BME280;2038;51.728;6.674;2023-05-09T11:51:41;100456.88;;;20.87;97.84
47753;BME280;2038;51.728;6.674;2023-05-09T11:54:08;100453.94;;;20.69;97.31
47753;BME280;2038;51.728;6.674;2023-05-09T11:56:39;100455.00;;;20.80;97.85
47753;BME280;2038;51.728;6.674;2023-05-09T11:59:07;100437.53;;;20.69;97.66
47753;BME280;2038;51.728;6.674;2023-05-09T12:01:33;100435.19;;;20.82;99.34
47753;BME280;2038;51.728;6.674;2023-05-09T12:04:01;100433.66;;;20.92;100.00
47753;BME280;2038;51.728;6.674;2023-05-09T12:06:27;100432.34;;;21.14;100.00
47753;BME280;2038;51.728;6.674;2023-05-09T12:08:55;100422.19;;;21.26;99.21
47753;BME280;2038;51.728;6.674;2023-05-09T12:11:24;100418.84;;;21.33;98.95
47753;BME280;2038;51.728;6.674;2023-05-09T12:13:51;100416.34;;;21.37;96.45
47753;BME280;2038;51.728;6.674;2023-05-09T12:16:18;100417.44;;;21.52;96.77
47753;BME280;2038;51.728;6.674;2023-05-09T12:18:50;100407.84;;;21.46;97.69
47753;BME280;2038;51.728;6.674;2023-05-09T12:21:18;100416.31;;;21.34;96.23
47753;BME280;2038;51.728;6.674;2023-05-09T12:23:48;100401.38;;;21.23;97.08
47753;BME280;2038;51.728;6.674;2023-05-09T12:26:14;100397.16;;;21.28;96.87
47753;BME280;2038;51.728;6.674;2023-05-09T12:28:41;100401.25;;;21.14;96.55
47753;BME280;2038;51.728;6.674;2023-05-09T12:31:07;100391.56;;;21.05;97.66
47753;BME280;2038;51.728;6.674;2023-05-09T12:33:35;100387.25;;;21.07;99.97
47753;BME280;2038;51.728;6.674;2023-05-09T12:36:04;100386.25;;;20.99;99.23
47753;BME280;2038;51.728;6.674;2023-05-09T12:38:33;100380.28;;;21.01;100.00
47753;BME280;2038;51.728;6.674;2023-05-09T12:41:03;100388.63;;;20.87;100.00
47753;BME280;2038;51.728;6.674;2023-05-09T12:43:36;100389.66;;;20.48;100.00
47753;BME280;2038;51.728;6.674;2023-05-09T12:46:04;100385.44;;;20.15;100.00
47753;BME280;2038;51.728;6.674;2023-05-09T12:48:38;100372.50;;;20.15;100.00
47753;BME280;2038;51.728;6.674;2023-05-09T12:51:05;100374.31;;;20.19;100.00
47753;BME280;2038;51.728;6.674;2023-05-09T12:53:34;100363.09;;;20.17;100.00
47753;BME280;2038;51.728;6.674;2023-05-09T12:56:04;100359.66;;;20.18;100.00
47753;BME280;2038;51.728;6.674;2023-05-09T12:58:37;100370.31;;;20.31;100.00
47753;BME280;2038;51.728;6.674;2023-05-09T13:01:04;100362.69;;;20.39;100.00
47753;BME280;2038;51.728;6.674;2023-05-09T13:03:31;100352.44;;;20.43;100.00
47753;BME280;2038;51.728;6.674;2023-05-09T13:06:04;100355.84;;;20.41;100.00
47753;BME280;2038;51.728;6.674;2023-05-09T13:08:38;100354.78;;;20.31;100.00
47753;BME280;2038;51.728;6.674;2023-05-09T13:11:04;100361.53;;;20.25;100.00
47753;BME280;2038;51.728;6.674;2023-05-09T13:13:31;100364.63;;;20.08;100.00
47753;BME280;2038;51.728;6.674;2023-05-09T13:15:57;100367.25;;;20.10;100.00
47753;BME280;2038;51.728;6.674;2023-05-09T13:18:24;100369.25;;;19.83;100.00
47753;BME280;2038;51.728;6.674;2023-05-09T13:20:50;100367.59;;;19.86;100.00
47753;BME280;2038;51.728;6.674;2023-05-09T13:23:17;100370.59;;;19.66;100.00
47753;BME280;2038;51.728;6.674;2023-05-09T13:25:43;100373.66;;;19.49;100.00